Time,TemperatureF,DewpointF,PressureIn,WindDirection,WindDirectionDegrees,WindSpeedMPH,WindSpeedGustMPH,Humidity,HourlyPrecipIn,Conditions,Clouds,dailyrainin,SoftwareType,DateUTC
2013-07-03 00:03:00,74.5,70.4,29.99,South,180,0.0,0.0,87,0.00,CLR,,0.00,WeatherDisplay:10.37,2013-07-03 05:03:00,
2013-07-03 00:08:00,74.7,70.5,29.99,South,180,0.0,0.0,87,0.00,CLR,,0.00,WeatherDisplay:10.37,2013-07-03 05:08:00,
2013-07-03 00:11:00,74.5,70.4,29.98,South,180,0.0,0.0,87,0.00,CLR,,0.00,WeatherDisplay:10.37,2013-07-03 05:11:00,
2013-07-03 00:16:00,74.5,70.4,29.98,South,180,0.0,0.0,87,0.00,CLR,,0.00,WeatherDisplay:10.37,2013-07-03 05:16:00,
2013-07-03 00:20:00,74.5,70.4,29.98,South,180,0.0,0.0,87,0.00,CLR,,0.00,WeatherDisplay:10.37,2013-07-03 05:20:00,
2013-07-03 00:25:00,74.5,70.4,29.98,South,180,0.0,0.0,87,0.00,CLR,,0.00,WeatherDisplay:10.37,2013-07-03 05:25:00,
2013-07-03 00:30:00,74.5,70.7,29.98,South,180,0.0,0.0,88,0.00,CLR,,0.00,WeatherDisplay:10.37,2013-07-03 05:30:00,
2013-07-03 00:36:00,74.1,70.0,29.98,South,180,0.0,0.0,87,0.00,CLR,,0.00,WeatherDisplay:10.37,2013-07-03 05:36:00,
2013-07-03 00:41:00,74.1,70.3,29.98,South,180,0.0,0.0,88,0.00,CLR,,0.00,WeatherDisplay:10.37,2013-07-03 05:41:00,
2013-07-03 00:46:00,74.1,70.3,29.97,South,180,0.0,0.0,88,0.00,CLR,,0.00,WeatherDisplay:10.37,2013-07-03 05:46:00,
2013-07-03 00:51:00,74.1,70.3,29.98,South,180,0.0,0.0,88,0.00,CLR,,0.00,WeatherDisplay:10.37,2013-07-03 05:51:00,
2013-07-03 00:54:00,74.1,70.3,29.97,South,180,0.0,0.0,88,0.00,CLR,,0.00,WeatherDisplay:10.37,2013-07-03 05:54:00,
2013-07-03 00:57:00,74.1,70.3,29.97,South,180,0.0,0.0,88,0.00,CLR,,0.00,WeatherDisplay:10.37,2013-07-03 05:57:00,
2013-07-03 00:59:00,74.1,70.3,29.97,South,180,0.0,0.0,88,0.00,CLR,,0.00,WeatherDisplay:10.37,2013-07-03 05:59:00,
2013-07-03 01:03:00,73.9,70.2,29.97,South,180,0.0,0.0,88,0.00,CLR,,0.00,WeatherDisplay:10.37,2013-07-03 06:03:00,
2013-07-03 01:08:00,73.9,70.2,29.97,South,180,0.0,0.0,88,0.00,CLR,,0.00,WeatherDisplay:10.37,2013-07-03 06:08:00,
2013-07-03 01:13:00,73.9,70.2,29.97,South,180,0.0,0.0,88,0.00,CLR,,0.00,WeatherDisplay:10.37,2013-07-03 06:13:00,
2013-07-03 01:14:00,73.9,70.2,29.97,South,180,0.0,0.0,88,0.00,CLR,,0.00,WeatherDisplay:10.37,2013-07-03 06:14:00,
2013-07-03 01:16:00,73.9,70.2,29.97,South,180,0.0,0.0,88,0.00,CLR,,0.00,WeatherDisplay:10.37,2013-07-03 06:16:00,
2013-07-03 01:18:00,73.9,70.2,29.97,South,180,0.0,0.0,88,0.00,CLR,,0.00,WeatherDisplay:10.37,2013-07-03 06:18:00,
2013-07-03 01:22:00,73.9,70.5,29.97,South,180,0.0,0.0,89,0.00,CLR,,0.00,WeatherDisplay:10.37,2013-07-03 06:22:00,
2013-07-03 01:25:00,73.9,70.2,29.97,South,180,0.0,0.0,88,0.00,CLR,,0.00,WeatherDisplay:10.37,2013-07-03 06:25:00,
2013-07-03 01:26:00,73.9,70.2,29.97,South,180,0.0,0.0,88,0.00,CLR,,0.00,WeatherDisplay:10.37,2013-07-03 06:26:00,
2013-07-03 01:31:00,73.9,70.5,29.97,South,180,0.0,0.0,89,0.00,CLR,,0.00,WeatherDisplay:10.37,2013-07-03 06:31:00,
2013-07-03 01:34:00,73.8,70.0,29.97,South,180,0.0,0.0,88,0.00,CLR,,0.00,WeatherDisplay:10.37,2013-07-03 06:34:00,
2013-07-03 01:39:00,73.8,70.0,29.96,South,180,0.0,0.0,88,0.00,CLR,,0.00,WeatherDisplay:10.37,2013-07-03 06:39:00,
2013-07-03 01:43:00,73.8,70.0,29.96,South,180,0.0,0.0,88,0.00,CLR,,0.00,WeatherDisplay:10.37,2013-07-03 06:43:00,
2013-07-03 01:48:00,73.8,70.3,29.96,South,180,0.0,0.0,89,0.00,CLR,,0.00,WeatherDisplay:10.37,2013-07-03 06:48:00,
2013-07-03 01:53:00,73.8,70.0,29.96,South,180,0.0,0.0,88,0.00,CLR,,0.00,WeatherDisplay:10.37,2013-07-03 06:53:00,
2013-07-03 01:55:00,73.8,70.0,29.96,South,180,0.0,0.0,88,0.00,CLR,,0.00,WeatherDisplay:10.37,2013-07-03 06:55:00,
2013-07-03 02:00:00,73.6,69.8,29.96,South,180,0.0,0.0,88,0.00,CLR,,0.00,WeatherDisplay:10.37,2013-07-03 07:00:00,
2013-07-03 02:05:00,73.6,69.8,29.96,South,180,0.0,0.0,88,0.00,CLR,,0.00,WeatherDisplay:10.37,2013-07-03 07:05:00,
2013-07-03 02:11:00,73.4,69.6,29.96,South,180,0.0,0.0,88,0.00,CLR,,0.00,WeatherDisplay:10.37,2013-07-03 07:11:00,
2013-07-03 02:16:00,73.4,69.6,29.95,South,180,0.0,0.0,88,0.00,CLR,,0.00,WeatherDisplay:10.37,2013-07-03 07:16:00,
2013-07-03 02:17:00,73.6,69.8,29.95,South,180,0.0,0.0,88,0.00,CLR,,0.00,WeatherDisplay:10.37,2013-07-03 07:17:00,
2013-07-03 02:22:00,73.6,69.8,29.95,South,180,0.0,0.0,88,0.00,CLR,,0.00,WeatherDisplay:10.37,2013-07-03 07:22:00,
2013-07-03 02:27:00,73.6,69.8,29.95,South,180,0.0,0.0,88,0.00,CLR,,0.00,WeatherDisplay:10.37,2013-07-03 07:27:00,
2013-07-03 02:32:00,73.6,69.8,29.95,South,180,0.0,0.0,88,0.00,CLR,,0.00,WeatherDisplay:10.37,2013-07-03 07:32:00,
2013-07-03 02:37:00,73.6,69.8,29.95,South,180,0.0,0.0,88,0.00,CLR,,0.00,WeatherDisplay:10.37,2013-07-03 07:37:00,
2013-07-03 02:42:00,73.8,70.0,29.95,South,180,0.0,0.0,88,0.00,CLR,,0.00,WeatherDisplay:10.37,2013-07-03 07:42:00,
2013-07-03 02:47:00,73.9,70.5,29.95,South,180,0.0,0.0,89,0.00,CLR,,0.00,WeatherDisplay:10.37,2013-07-03 07:47:00,
2013-07-03 02:53:00,73.9,70.5,29.95,South,180,0.0,0.0,89,0.00,CLR,,0.00,WeatherDisplay:10.37,2013-07-03 07:53:00,
2013-07-03 02:55:00,73.9,70.5,29.95,South,180,0.0,0.0,89,0.00,CLR,,0.00,WeatherDisplay:10.37,2013-07-03 07:55:00,
2013-07-03 03:01:00,73.9,70.5,29.95,South,180,0.0,0.0,89,0.00,CLR,,0.00,WeatherDisplay:10.37,2013-07-03 08:01:00,
2013-07-03 03:06:00,73.9,70.5,29.95,South,180,0.0,0.0,89,0.00,CLR,,0.00,WeatherDisplay:10.37,2013-07-03 08:06:00,
2013-07-03 03:09:00,73.9,70.5,29.95,South,180,0.0,0.0,89,0.00,CLR,,0.00,WeatherDisplay:10.37,2013-07-03 08:09:00,
2013-07-03 03:13:00,73.9,70.5,29.95,South,180,0.0,0.0,89,0.00,CLR,,0.00,WeatherDisplay:10.37,2013-07-03 08:13:00,
2013-07-03 03:18:00,73.8,70.3,29.95,South,180,0.0,0.0,89,0.00,CLR,,0.00,WeatherDisplay:10.37,2013-07-03 08:18:00,
2013-07-03 03:20:00,73.9,70.5,29.95,South,180,0.0,0.0,89,0.00,CLR,,0.00,WeatherDisplay:10.37,2013-07-03 08:20:00,
2013-07-03 03:22:00,73.9,70.5,29.95,South,180,0.0,0.0,89,0.00,CLR,,0.00,WeatherDisplay:10.37,2013-07-03 08:22:00,
2013-07-03 03:27:00,73.9,70.5,29.95,South,180,0.0,0.0,89,0.00,CLR,,0.00,WeatherDisplay:10.37,2013-07-03 08:27:00,
2013-07-03 03:32:00,73.8,70.3,29.95,South,180,0.0,0.0,89,0.00,CLR,,0.00,WeatherDisplay:10.37,2013-07-03 08:32:00,
2013-07-03 03:37:00,73.8,70.3,29.94,South,180,0.0,0.0,89,0.00,CLR,,0.00,WeatherDisplay:10.37,2013-07-03 08:37:00,
2013-07-03 03:39:00,73.8,70.3,29.94,South,180,0.0,0.0,89,0.00,CLR,,0.00,WeatherDisplay:10.37,2013-07-03 08:39:00,
2013-07-03 03:44:00,73.8,70.3,29.95,South,180,0.0,0.0,89,0.00,CLR,,0.00,WeatherDisplay:10.37,2013-07-03 08:44:00,
2013-07-03 03:45:00,73.8,70.3,29.95,South,180,0.0,0.0,89,0.00,CLR,,0.00,WeatherDisplay:10.37,2013-07-03 08:45:00,
2013-07-03 03:50:00,73.8,70.0,29.94,South,180,0.0,0.0,88,0.00,CLR,,0.00,WeatherDisplay:10.37,2013-07-03 08:50:00,
2013-07-03 03:55:00,73.8,70.3,29.94,South,180,0.0,0.0,89,0.00,CLR,,0.00,WeatherDisplay:10.37,2013-07-03 08:55:00,
2013-07-03 03:56:00,73.8,70.3,29.94,South,180,0.0,0.0,89,0.00,CLR,,0.00,WeatherDisplay:10.37,2013-07-03 08:56:00,
2013-07-03 03:57:00,73.6,70.1,29.94,South,180,0.0,0.0,89,0.00,CLR,,0.00,WeatherDisplay:10.37,2013-07-03 08:57:00,
2013-07-03 04:02:00,73.6,70.1,29.94,South,180,0.0,0.0,89,0.00,CLR,,0.00,WeatherDisplay:10.37,2013-07-03 09:02:00,
2013-07-03 04:07:00,73.6,70.1,29.94,South,180,0.0,0.0,89,0.00,CLR,,0.00,WeatherDisplay:10.37,2013-07-03 09:07:00,
2013-07-03 04:13:00,73.6,70.1,29.94,South,180,0.0,0.0,89,0.00,CLR,,0.00,WeatherDisplay:10.37,2013-07-03 09:13:00,
2013-07-03 04:18:00,73.6,70.1,29.94,South,180,0.0,0.0,89,0.00,CLR,,0.00,WeatherDisplay:10.37,2013-07-03 09:18:00,
2013-07-03 04:23:00,73.6,70.1,29.94,South,180,0.0,0.0,89,0.00,CLR,,0.00,WeatherDisplay:10.37,2013-07-03 09:23:00,
2013-07-03 04:28:00,73.6,70.1,29.94,South,180,1.2,1.8,89,0.00,CLR,,0.00,WeatherDisplay:10.37,2013-07-03 09:28:00,
2013-07-03 04:33:00,73.6,70.1,29.95,South,180,0.0,0.0,89,0.00,CLR,,0.00,WeatherDisplay:10.37,2013-07-03 09:33:00,
2013-07-03 04:38:00,73.6,70.1,29.95,South,180,0.0,0.0,89,0.00,CLR,,0.00,WeatherDisplay:10.37,2013-07-03 09:38:00,
2013-07-03 04:41:00,73.4,70.0,29.94,South,180,0.0,0.0,89,0.00,CLR,,0.00,WeatherDisplay:10.37,2013-07-03 09:41:00,
2013-07-03 04:46:00,73.6,70.1,29.95,South,180,0.0,0.0,89,0.00,CLR,,0.00,WeatherDisplay:10.37,2013-07-03 09:46:00,
2013-07-03 04:49:00,73.4,70.0,29.95,South,180,0.0,0.0,89,0.00,CLR,,0.00,WeatherDisplay:10.37,2013-07-03 09:49:00,
2013-07-03 04:50:00,73.6,70.1,29.95,South,180,0.0,0.0,89,0.00,CLR,,0.00,WeatherDisplay:10.37,2013-07-03 09:50:00,
2013-07-03 04:55:00,73.6,70.1,29.95,South,180,0.0,0.0,89,0.00,CLR,,0.00,WeatherDisplay:10.37,2013-07-03 09:55:00,
2013-07-03 05:00:00,73.6,70.1,29.96,South,180,0.0,0.0,89,0.00,CLR,,0.00,WeatherDisplay:10.37,2013-07-03 10:00:00,
2013-07-03 05:05:00,73.6,70.1,29.96,South,180,0.0,0.0,89,0.00,CLR,,0.00,WeatherDisplay:10.37,2013-07-03 10:05:00,
2013-07-03 05:07:00,73.6,70.1,29.96,South,180,0.0,0.0,89,0.00,CLR,,0.00,WeatherDisplay:10.37,2013-07-03 10:07:00,
2013-07-03 05:12:00,73.6,70.1,29.95,South,180,0.0,0.0,89,0.00,CLR,,0.00,WeatherDisplay:10.37,2013-07-03 10:12:00,
2013-07-03 05:17:00,73.4,70.0,29.96,South,180,0.0,0.0,89,0.00,CLR,,0.00,WeatherDisplay:10.37,2013-07-03 10:17:00,
2013-07-03 05:22:00,73.2,69.8,29.96,SE,135,3.5,6.3,89,0.00,CLR,,0.00,WeatherDisplay:10.37,2013-07-03 10:22:00,
2013-07-03 05:27:00,73.2,69.8,29.96,SE,135,2.3,2.3,89,0.00,CLR,,0.00,WeatherDisplay:10.37,2013-07-03 10:27:00,
2013-07-03 05:32:00,73.2,69.8,29.96,SE,135,1.3,1.3,89,0.00,CLR,,0.00,WeatherDisplay:10.37,2013-07-03 10:32:00,
2013-07-03 05:37:00,73.2,69.8,29.97,SE,135,0.0,0.0,89,0.00,CLR,,0.00,WeatherDisplay:10.37,2013-07-03 10:37:00,
2013-07-03 05:42:00,73.2,69.8,29.97,SE,135,0.0,0.0,89,0.00,CLR,,0.00,WeatherDisplay:10.37,2013-07-03 10:42:00,
2013-07-03 05:47:00,73.2,69.8,29.96,SE,135,0.0,0.0,89,0.00,CLR,,0.00,WeatherDisplay:10.37,2013-07-03 10:47:00,
2013-07-03 05:53:00,73.2,69.8,29.96,SE,135,0.0,0.0,89,0.00,CLR,,0.00,WeatherDisplay:10.37,2013-07-03 10:53:00,
2013-07-03 05:55:00,73.2,69.8,29.96,SE,135,0.0,0.0,89,0.00,CLR,,0.00,WeatherDisplay:10.37,2013-07-03 10:55:00,
2013-07-03 05:57:00,73.2,69.8,29.96,SE,135,0.0,0.0,89,0.00,CLR,,0.00,WeatherDisplay:10.37,2013-07-03 10:57:00,
2013-07-03 06:02:00,73.2,69.8,29.97,SE,135,0.0,0.0,89,0.00,CLR,,0.00,WeatherDisplay:10.37,2013-07-03 11:02:00,
2013-07-03 06:07:00,73.2,69.8,29.97,SE,135,0.0,0.0,89,0.00,CLR,,0.00,WeatherDisplay:10.37,2013-07-03 11:07:00,
2013-07-03 06:09:00,73.2,69.8,29.97,SE,135,0.0,0.0,89,0.00,CLR,,0.00,WeatherDisplay:10.37,2013-07-03 11:09:00,
2013-07-03 06:11:00,73.0,69.6,29.97,SE,135,0.0,0.0,89,0.00,CLR,,0.00,WeatherDisplay:10.37,2013-07-03 11:11:00,
2013-07-03 06:16:00,73.2,69.8,29.97,SE,135,0.0,0.0,89,0.00,CLR,,0.00,WeatherDisplay:10.37,2013-07-03 11:16:00,
2013-07-03 06:19:00,73.2,69.8,29.97,SE,135,0.0,0.0,89,0.00,CLR,,0.00,WeatherDisplay:10.37,2013-07-03 11:19:00,
2013-07-03 06:24:00,73.2,69.8,29.98,SE,135,0.0,0.0,89,0.00,CLR,,0.00,WeatherDisplay:10.37,2013-07-03 11:24:00,
2013-07-03 06:27:00,73.2,70.1,29.98,SE,135,0.0,0.0,90,0.00,CLR,,0.00,WeatherDisplay:10.37,2013-07-03 11:27:00,
2013-07-03 06:32:00,73.2,70.1,29.98,NE,45,0.0,0.0,90,0.00,CLR,,0.00,WeatherDisplay:10.37,2013-07-03 11:32:00,
2013-07-03 06:38:00,73.2,70.1,29.98,NE,45,0.0,0.0,90,0.00,CLR,,0.00,WeatherDisplay:10.37,2013-07-03 11:38:00,
2013-07-03 06:43:00,73.2,70.1,29.98,NE,45,0.0,0.0,90,0.00,CLR,,0.00,WeatherDisplay:10.37,2013-07-03 11:43:00,
2013-07-03 06:47:00,73.2,70.1,29.98,NE,45,0.0,0.0,90,0.00,CLR,,0.00,WeatherDisplay:10.37,2013-07-03 11:47:00,
2013-07-03 06:52:00,73.2,70.1,29.99,NE,45,3.5,7.0,90,0.00,CLR,,0.00,WeatherDisplay:10.37,2013-07-03 11:52:00,
2013-07-03 06:57:00,73.2,70.1,29.99,NE,45,3.5,6.1,90,0.00,CLR,,0.00,WeatherDisplay:10.37,2013-07-03 11:57:00,
2013-07-03 07:01:00,73.0,69.9,29.99,NE,45,2.3,5.3,90,0.00,CLR,,0.00,WeatherDisplay:10.37,2013-07-03 12:01:00,
2013-07-03 07:06:00,73.2,70.1,29.98,NE,45,0.0,0.6,90,0.00,CLR,,0.00,WeatherDisplay:10.37,2013-07-03 12:06:00,
2013-07-03 07:11:00,73.2,70.1,29.98,NE,45,3.5,6.2,90,0.00,CLR,,0.00,WeatherDisplay:10.37,2013-07-03 12:11:00,
2013-07-03 07:17:00,73.2,70.1,29.98,NE,45,2.3,2.3,90,0.00,CLR,,0.00,WeatherDisplay:10.37,2013-07-03 12:17:00,
2013-07-03 07:18:00,73.2,70.1,29.98,NE,45,0.0,0.0,90,0.00,CLR,,0.00,WeatherDisplay:10.37,2013-07-03 12:18:00,
2013-07-03 07:22:00,73.4,70.3,29.98,NE,45,0.0,0.0,90,0.00,CLR,,0.00,WeatherDisplay:10.37,2013-07-03 12:22:00,
2013-07-03 07:27:00,73.6,70.5,29.99,NE,45,5.8,5.8,90,0.00,CLR,,0.00,WeatherDisplay:10.37,2013-07-03 12:27:00,
2013-07-03 07:32:00,73.9,70.8,29.99,NE,45,4.6,5.5,90,0.00,CLR,,0.00,WeatherDisplay:10.37,2013-07-03 12:32:00,
2013-07-03 07:37:00,74.1,71.0,29.99,NE,45,3.5,6.1,90,0.00,CLR,,0.00,WeatherDisplay:10.37,2013-07-03 12:37:00,
2013-07-03 07:43:00,74.5,71.4,29.99,ENE,68,6.9,14.0,90,0.00,CLR,,0.00,WeatherDisplay:10.37,2013-07-03 12:43:00,
2013-07-03 07:48:00,74.5,71.4,29.99,ENE,68,8.1,15.8,90,0.00,CLR,,0.00,WeatherDisplay:10.37,2013-07-03 12:48:00,
2013-07-03 07:50:00,74.7,71.5,29.99,ENE,68,8.1,13.1,90,0.00,CLR,,0.00,WeatherDisplay:10.37,2013-07-03 12:50:00,
2013-07-03 07:55:00,74.8,71.7,29.99,ENE,68,9.2,13.6,90,0.00,,,0.00,WeatherDisplay:10.37,2013-07-03 12:55:00,
2013-07-03 08:00:00,75.0,71.9,29.99,ENE,68,8.1,16.6,90,0.00,CLR,,0.00,WeatherDisplay:10.37,2013-07-03 13:00:00,
2013-07-03 08:05:00,75.2,71.7,29.98,ENE,68,9.2,9.6,89,0.00,CLR,,0.00,WeatherDisplay:10.37,2013-07-03 13:05:00,
2013-07-03 08:10:00,75.6,72.4,29.98,ENE,68,9.2,14.9,90,0.00,CLR,,0.00,WeatherDisplay:10.37,2013-07-03 13:10:00,
2013-07-03 08:15:00,75.9,72.8,29.98,ENE,68,7.1,7.1,90,0.00,CLR,,0.00,WeatherDisplay:10.37,2013-07-03 13:15:00,
2013-07-03 08:20:00,76.5,73.0,29.99,East,90,11.5,18.7,89,0.00,CLR,,0.00,WeatherDisplay:10.37,2013-07-03 13:20:00,
2013-07-03 08:25:00,76.8,73.3,29.99,ENE,68,11.5,21.9,89,0.00,CLR,,0.00,WeatherDisplay:10.37,2013-07-03 13:25:00,
2013-07-03 08:27:00,77.0,73.5,29.99,ENE,68,11.5,21.9,89,0.00,CLR,,0.00,WeatherDisplay:10.37,2013-07-03 13:27:00,
2013-07-03 08:32:00,77.4,73.5,29.99,ENE,68,6.9,6.9,88,0.00,CLR,,0.00,WeatherDisplay:10.37,2013-07-03 13:32:00,
2013-07-03 08:37:00,77.9,74.1,29.98,ENE,68,4.9,9.6,88,0.00,CLR,,0.00,WeatherDisplay:10.37,2013-07-03 13:37:00,
2013-07-03 08:39:00,77.9,73.7,29.98,ENE,68,4.6,4.6,87,0.00,CLR,,0.00,WeatherDisplay:10.37,2013-07-03 13:39:00,
2013-07-03 08:44:00,78.3,74.4,29.99,ENE,68,6.9,13.1,88,0.00,CLR,,0.00,WeatherDisplay:10.37,2013-07-03 13:44:00,
2013-07-03 08:49:00,78.4,74.2,29.98,ENE,68,4.9,9.0,87,0.00,CLR,,0.00,WeatherDisplay:10.37,2013-07-03 13:49:00,
2013-07-03 08:54:00,79.0,74.4,29.99,ENE,68,1.3,2.6,86,0.00,CLR,,0.00,WeatherDisplay:10.37,2013-07-03 13:54:00,
2013-07-03 08:59:00,79.0,74.1,29.99,East,90,4.4,4.4,85,0.00,CLR,,0.00,WeatherDisplay:10.37,2013-07-03 13:59:00,
2013-07-03 09:05:00,79.2,74.3,29.99,East,90,0.0,0.0,85,0.00,CLR,,0.00,WeatherDisplay:10.37,2013-07-03 14:05:00,
2013-07-03 09:06:00,79.2,74.3,30.00,East,90,2.7,2.7,85,0.00,CLR,,0.00,WeatherDisplay:10.37,2013-07-03 14:06:00,
2013-07-03 09:10:00,79.2,74.3,30.00,East,90,3.5,6.1,85,0.00,CLR,,0.00,WeatherDisplay:10.37,2013-07-03 14:10:00,
2013-07-03 09:16:00,79.3,74.4,29.99,ENE,68,5.8,10.2,85,0.00,CLR,,0.00,WeatherDisplay:10.37,2013-07-03 14:16:00,
2013-07-03 09:18:00,79.5,74.3,29.99,ENE,68,5.8,8.0,84,0.00,CLR,,0.00,WeatherDisplay:10.37,2013-07-03 14:18:00,
2013-07-03 09:23:00,79.7,74.4,29.99,ENE,68,5.8,8.8,84,0.00,CLR,,0.00,WeatherDisplay:10.37,2013-07-03 14:23:00,
2013-07-03 09:28:00,80.2,75.0,29.99,ENE,68,7.1,14.0,84,0.00,CLR,,0.00,WeatherDisplay:10.37,2013-07-03 14:28:00,
2013-07-03 09:30:00,80.2,74.6,29.99,ENE,68,6.9,14.0,83,0.00,CLR,,0.00,WeatherDisplay:10.37,2013-07-03 14:30:00,
2013-07-03 09:35:00,80.4,74.8,29.99,ENE,68,0.0,0.7,83,0.00,CLR,,0.00,WeatherDisplay:10.37,2013-07-03 14:35:00,
2013-07-03 09:38:00,80.4,74.8,29.99,ENE,68,5.8,12.3,83,0.00,CLR,,0.00,WeatherDisplay:10.37,2013-07-03 14:38:00,
2013-07-03 09:41:00,80.4,74.8,30.00,ENE,68,8.1,13.0,83,0.00,CLR,,0.00,WeatherDisplay:10.37,2013-07-03 14:41:00,
2013-07-03 09:46:00,80.4,74.8,30.00,ENE,68,6.9,13.1,83,0.00,CLR,,0.00,WeatherDisplay:10.37,2013-07-03 14:46:00,
2013-07-03 09:51:00,80.4,74.8,30.00,ENE,68,5.8,5.8,83,0.00,CLR,,0.00,WeatherDisplay:10.37,2013-07-03 14:51:00,
2013-07-03 09:56:00,80.4,74.4,30.00,ENE,68,6.9,12.4,82,0.00,CLR,,0.00,WeatherDisplay:10.37,2013-07-03 14:56:00,
2013-07-03 10:01:00,80.2,74.2,29.99,ENE,68,5.8,9.0,82,0.00,CLR,,0.00,WeatherDisplay:10.37,2013-07-03 15:01:00,
2013-07-03 10:02:00,80.2,74.2,29.99,ENE,68,5.8,11.4,82,0.00,CLR,,0.00,WeatherDisplay:10.37,2013-07-03 15:02:00,
2013-07-03 10:04:00,80.2,74.2,29.99,ENE,68,11.5,14.9,82,0.00,CLR,,0.00,WeatherDisplay:10.37,2013-07-03 15:04:00,
2013-07-03 10:09:00,80.2,74.2,29.99,ENE,68,7.1,14.0,82,0.00,CLR,,0.00,WeatherDisplay:10.37,2013-07-03 15:09:00,
2013-07-03 10:11:00,80.2,74.2,29.99,ENE,68,6.9,7.9,82,0.00,CLR,,0.00,WeatherDisplay:10.37,2013-07-03 15:11:00,
2013-07-03 10:16:00,80.2,74.6,30.00,ENE,68,3.5,7.0,83,0.00,CLR,,0.00,WeatherDisplay:10.37,2013-07-03 15:16:00,
2013-07-03 10:21:00,80.2,74.6,30.00,ENE,68,5.3,9.6,83,0.00,CLR,,0.00,WeatherDisplay:10.37,2013-07-03 15:21:00,
2013-07-03 10:26:00,80.2,74.2,30.00,ENE,68,8.4,16.3,82,0.00,CLR,,0.00,WeatherDisplay:10.37,2013-07-03 15:26:00,
2013-07-03 10:29:00,80.2,74.2,30.00,ENE,68,8.1,15.8,82,0.00,CLR,,0.00,WeatherDisplay:10.37,2013-07-03 15:29:00,
2013-07-03 10:34:00,80.2,74.2,30.00,ENE,68,1.2,2.5,82,0.00,CLR,,0.00,WeatherDisplay:10.37,2013-07-03 15:34:00,
2013-07-03 10:39:00,80.4,74.8,30.00,ENE,68,1.3,2.6,83,0.00,CLR,,0.00,WeatherDisplay:10.37,2013-07-03 15:39:00,
2013-07-03 10:41:00,80.4,74.8,30.01,ENE,68,3.5,6.5,83,0.00,CLR,,0.00,WeatherDisplay:10.37,2013-07-03 15:41:00,
2013-07-03 10:46:00,80.4,74.8,30.01,ENE,68,11.5,23.7,83,0.00,CLR,,0.00,WeatherDisplay:10.37,2013-07-03 15:46:00,
2013-07-03 10:51:00,81.0,74.9,30.00,East,90,10.4,19.8,82,0.00,CLR,,0.00,WeatherDisplay:10.37,2013-07-03 15:51:00,
2013-07-03 10:52:00,81.0,74.9,30.00,East,90,10.4,14.0,82,0.00,CLR,,0.00,WeatherDisplay:10.37,2013-07-03 15:52:00,
2013-07-03 10:54:00,81.0,74.9,30.00,ESE,112,10.4,12.3,82,0.00,CLR,,0.00,WeatherDisplay:10.37,2013-07-03 15:54:00,
2013-07-03 10:56:00,81.0,74.9,30.00,ENE,68,10.4,20.1,82,0.00,CLR,,0.00,WeatherDisplay:10.37,2013-07-03 15:56:00,
2013-07-03 11:01:00,81.1,74.8,30.00,East,90,3.5,8.7,81,0.00,CLR,,0.00,WeatherDisplay:10.37,2013-07-03 16:01:00,
2013-07-03 11:06:00,81.7,75.3,30.00,SE,135,8.1,8.1,81,0.00,CLR,,0.00,WeatherDisplay:10.37,2013-07-03 16:06:00,
2013-07-03 11:12:00,81.7,75.3,30.00,ENE,68,11.5,21.9,81,0.00,CLR,,0.00,WeatherDisplay:10.37,2013-07-03 16:12:00,
2013-07-03 11:17:00,81.7,75.3,30.01,East,90,11.9,17.4,81,0.00,CLR,,0.00,WeatherDisplay:10.37,2013-07-03 16:17:00,
2013-07-03 11:22:00,81.9,75.5,30.00,ENE,68,13.8,0.0,81,0.00,,,0.00,WeatherDisplay:10.37,2013-07-03 16:22:00,
2013-07-03 11:27:00,81.7,74.9,30.00,ENE,68,13.8,0.0,80,0.00,CLR,,0.00,WeatherDisplay:10.37,2013-07-03 16:27:00,
2013-07-03 11:32:00,82.0,75.3,30.00,SSE,158,10.4,12.1,80,0.00,CLR,,0.00,WeatherDisplay:10.37,2013-07-03 16:32:00,
2013-07-03 11:37:00,82.2,75.1,30.00,ENE,68,13.8,27.2,79,0.00,CLR,,0.00,WeatherDisplay:10.37,2013-07-03 16:37:00,
2013-07-03 11:42:00,82.0,74.9,29.99,ENE,68,11.5,22.8,79,0.00,CLR,,0.00,WeatherDisplay:10.37,2013-07-03 16:42:00,
2013-07-03 11:48:00,82.0,74.9,29.99,ENE,68,11.5,21.9,79,0.00,CLR,,0.00,WeatherDisplay:10.37,2013-07-03 16:48:00,
2013-07-03 11:53:00,82.0,74.9,29.99,ENE,68,9.2,14.7,79,0.00,CLR,,0.00,WeatherDisplay:10.37,2013-07-03 16:53:00,
2013-07-03 11:58:00,82.2,75.4,29.98,East,90,12.7,24.5,80,0.00,CLR,,0.00,WeatherDisplay:10.37,2013-07-03 16:58:00,
2013-07-03 12:03:00,82.6,75.8,29.97,ENE,68,3.5,7.0,80,0.00,CLR,,0.00,WeatherDisplay:10.37,2013-07-03 17:03:00,
2013-07-03 12:08:00,82.9,75.8,29.97,East,90,9.2,14.7,79,0.00,CLR,,0.00,WeatherDisplay:10.37,2013-07-03 17:08:00,
2013-07-03 12:13:00,83.1,75.9,29.97,ENE,68,4.6,7.9,79,0.00,CLR,,0.00,WeatherDisplay:10.37,2013-07-03 17:13:00,
2013-07-03 12:18:00,83.1,75.5,29.98,ENE,68,7.1,14.0,78,0.00,CLR,,0.00,WeatherDisplay:10.37,2013-07-03 17:18:00,
2013-07-03 12:24:00,83.1,75.5,29.98,East,90,5.8,10.5,78,0.00,CLR,,0.00,WeatherDisplay:10.37,2013-07-03 17:24:00,
2013-07-03 12:29:00,82.9,75.4,29.99,ENE,68,8.1,16.6,78,0.00,CLR,,0.00,WeatherDisplay:10.37,2013-07-03 17:29:00,
2013-07-03 12:35:00,82.9,75.4,29.98,ENE,68,9.7,19.3,78,0.00,CLR,,0.00,WeatherDisplay:10.37,2013-07-03 17:35:00,
2013-07-03 12:40:00,82.9,75.0,29.98,East,90,5.8,11.4,77,0.00,,,0.00,WeatherDisplay:10.37,2013-07-03 17:40:00,
2013-07-03 12:45:00,83.1,75.2,29.98,East,90,5.8,10.7,77,0.00,CLR,,0.00,WeatherDisplay:10.37,2013-07-03 17:45:00,
2013-07-03 12:50:00,83.3,75.7,29.97,ENE,68,9.2,16.6,78,0.00,CLR,,0.00,WeatherDisplay:10.37,2013-07-03 17:50:00,
2013-07-03 12:55:00,84.0,76.0,29.97,East,90,9.2,19.7,77,0.00,CLR,,0.00,WeatherDisplay:10.37,2013-07-03 17:55:00,
2013-07-03 13:00:00,84.4,75.6,29.97,SSE,158,10.4,19.4,75,0.00,CLR,,0.00,WeatherDisplay:10.37,2013-07-03 18:00:00,
2013-07-03 13:06:00,84.6,75.8,29.97,SE,135,11.5,20.0,75,0.00,CLR,,0.00,WeatherDisplay:10.37,2013-07-03 18:06:00,
2013-07-03 13:11:00,84.7,75.9,29.96,ESE,112,8.1,15.5,75,0.00,CLR,,0.00,WeatherDisplay:10.37,2013-07-03 18:11:00,
2013-07-03 13:16:00,84.6,74.9,29.96,ESE,112,8.1,14.9,73,0.00,CLR,,0.00,WeatherDisplay:10.37,2013-07-03 18:16:00,
2013-07-03 13:21:00,84.6,75.8,29.96,SSE,158,9.2,18.5,75,0.00,CLR,,0.00,WeatherDisplay:10.37,2013-07-03 18:21:00,
2013-07-03 13:26:00,84.6,75.4,29.96,SSE,158,11.5,22.3,74,0.00,CLR,,0.00,WeatherDisplay:10.37,2013-07-03 18:26:00,
2013-07-03 13:31:00,84.7,75.1,29.96,SSE,158,15.0,29.8,73,0.00,,,0.00,WeatherDisplay:10.37,2013-07-03 18:31:00,
2013-07-03 13:36:00,84.7,75.1,29.97,ESE,112,9.2,15.4,73,0.00,CLR,,0.00,WeatherDisplay:10.37,2013-07-03 18:36:00,
2013-07-03 13:41:00,84.7,75.5,29.97,East,90,8.1,13.1,74,0.00,CLR,,0.00,WeatherDisplay:10.37,2013-07-03 18:41:00,
2013-07-03 13:46:00,84.7,75.1,29.97,SSE,158,9.2,18.4,73,0.00,CLR,,0.00,WeatherDisplay:10.37,2013-07-03 18:46:00,
2013-07-03 13:51:00,84.7,75.5,29.97,SSE,158,12.7,23.7,74,0.00,CLR,,0.00,WeatherDisplay:10.37,2013-07-03 18:51:00,
2013-07-03 13:56:00,84.4,75.6,29.97,SE,135,15.0,28.6,75,0.00,CLR,,0.00,WeatherDisplay:10.37,2013-07-03 18:56:00,
2013-07-03 14:01:00,83.7,75.3,29.98,SSE,158,12.7,24.5,76,0.00,CLR,,0.00,WeatherDisplay:10.37,2013-07-03 19:01:00,
2013-07-03 14:07:00,82.6,74.6,29.98,ESE,112,8.1,13.7,77,0.00,CLR,,0.00,WeatherDisplay:10.37,2013-07-03 19:07:00,
2013-07-03 14:12:00,82.0,74.5,29.98,ESE,112,11.5,23.7,78,0.00,CLR,,0.00,WeatherDisplay:10.37,2013-07-03 19:12:00,
2013-07-03 14:18:00,81.7,74.9,29.97,ESE,112,10.4,20.1,80,0.00,CLR,,0.00,WeatherDisplay:10.37,2013-07-03 19:18:00,
2013-07-03 14:23:00,81.7,74.9,29.97,SE,135,12.7,22.0,80,0.00,CLR,,0.00,WeatherDisplay:10.37,2013-07-03 19:23:00,
2013-07-03 14:28:00,82.0,75.3,29.97,SSE,158,14.2,28.0,80,0.00,CLR,,0.00,WeatherDisplay:10.37,2013-07-03 19:28:00,
2013-07-03 14:34:00,82.2,75.1,29.96,SE,135,5.8,7.2,79,0.00,CLR,,0.00,WeatherDisplay:10.37,2013-07-03 19:34:00,
2013-07-03 14:39:00,82.2,74.7,29.96,SSE,158,13.8,27.2,78,0.00,CLR,,0.00,WeatherDisplay:10.37,2013-07-03 19:39:00,
2013-07-03 14:44:00,82.4,74.5,29.97,SSE,158,15.0,26.4,77,0.00,CLR,,0.00,WeatherDisplay:10.37,2013-07-03 19:44:00,
2013-07-03 14:49:00,82.6,74.6,29.96,SSE,158,17.3,22.9,77,0.00,CLR,,0.00,WeatherDisplay:10.37,2013-07-03 19:49:00,
2013-07-03 14:54:00,82.6,74.2,29.96,SE,135,15.0,22.0,76,0.00,,,0.00,WeatherDisplay:10.37,2013-07-03 19:54:00,
2013-07-03 14:59:00,82.9,75.0,29.95,SSE,158,13.8,27.2,77,0.00,CLR,,0.00,WeatherDisplay:10.37,2013-07-03 19:59:00,
2013-07-03 15:05:00,83.1,75.5,29.95,SSE,158,11.9,23.7,78,0.00,,,0.00,WeatherDisplay:10.37,2013-07-03 20:05:00,
2013-07-03 15:10:00,82.8,75.2,29.95,SSE,158,13.8,22.8,78,0.00,CLR,,0.00,WeatherDisplay:10.37,2013-07-03 20:10:00,
2013-07-03 15:15:00,82.6,75.0,29.94,SSE,158,15.0,28.0,78,0.00,CLR,,0.00,WeatherDisplay:10.37,2013-07-03 20:15:00,
2013-07-03 15:20:00,82.4,74.8,29.94,SSE,158,12.7,24.5,78,0.00,,,0.00,WeatherDisplay:10.37,2013-07-03 20:20:00,
2013-07-03 15:25:00,82.4,74.8,29.94,SSE,158,8.1,15.8,78,0.00,CLR,,0.00,WeatherDisplay:10.37,2013-07-03 20:25:00,
2013-07-03 15:30:00,82.6,75.0,29.94,ESE,112,11.9,23.3,78,0.00,CLR,,0.00,WeatherDisplay:10.37,2013-07-03 20:30:00,
2013-07-03 15:35:00,82.8,75.2,29.94,SSE,158,12.7,25.4,78,0.00,,,0.00,WeatherDisplay:10.37,2013-07-03 20:35:00,
2013-07-03 15:40:00,82.6,74.6,29.93,SSE,158,19.6,35.7,77,0.00,,,0.00,WeatherDisplay:10.37,2013-07-03 20:40:00,
2013-07-03 15:45:00,82.2,74.7,29.92,SSE,158,15.0,28.9,78,0.00,,,0.00,WeatherDisplay:10.37,2013-07-03 20:45:00,
2013-07-03 15:50:00,82.2,74.7,29.92,SSE,158,13.8,28.0,78,0.00,,,0.00,WeatherDisplay:10.37,2013-07-03 20:50:00,
2013-07-03 15:55:00,82.2,74.7,29.92,SSE,158,18.4,32.8,78,0.00,,,0.00,WeatherDisplay:10.37,2013-07-03 20:55:00,
2013-07-03 16:00:00,82.2,74.3,29.92,East,90,8.1,14.9,77,0.00,CLR,,0.00,WeatherDisplay:10.37,2013-07-03 21:00:00,
2013-07-03 16:05:00,82.0,74.1,29.92,SSE,158,10.6,21.0,77,0.00,CLR,,0.00,WeatherDisplay:10.37,2013-07-03 21:05:00,
2013-07-03 16:11:00,82.2,74.3,29.92,SSE,158,12.8,25.4,77,0.00,CLR,,0.00,WeatherDisplay:10.37,2013-07-03 21:11:00,
2013-07-03 16:16:00,82.0,74.1,29.92,ENE,68,11.5,21.9,77,0.00,CLR,,0.00,WeatherDisplay:10.37,2013-07-03 21:16:00,
2013-07-03 16:21:00,82.0,73.7,29.93,SSE,158,11.5,24.4,76,0.00,CLR,,0.00,WeatherDisplay:10.37,2013-07-03 21:21:00,
2013-07-03 16:27:00,82.0,73.7,29.93,SE,135,16.1,31.5,76,0.00,,,0.00,WeatherDisplay:10.37,2013-07-03 21:27:00,
2013-07-03 16:32:00,81.7,73.8,29.93,SE,135,12.7,21.9,77,0.00,CLR,,0.00,WeatherDisplay:10.37,2013-07-03 21:32:00,
2013-07-03 16:38:00,81.7,73.8,29.93,SSE,158,13.8,28.0,77,0.00,CLR,,0.00,WeatherDisplay:10.37,2013-07-03 21:38:00,
2013-07-03 16:43:00,81.7,73.8,29.93,SSE,158,12.7,24.5,77,0.00,CLR,,0.00,WeatherDisplay:10.37,2013-07-03 21:43:00,
2013-07-03 16:48:00,81.7,74.1,29.93,SSW,202,8.1,14.9,78,0.00,CLR,,0.00,WeatherDisplay:10.37,2013-07-03 21:48:00,
2013-07-03 16:53:00,81.7,74.1,29.93,SSE,158,12.7,25.0,78,0.00,CLR,,0.00,WeatherDisplay:10.37,2013-07-03 21:53:00,
2013-07-03 16:58:00,81.7,74.1,29.93,SE,135,15.0,26.6,78,0.00,,,0.00,WeatherDisplay:10.37,2013-07-03 21:58:00,
2013-07-03 17:03:00,81.7,74.1,29.93,SE,135,10.4,20.1,78,0.00,CLR,,0.00,WeatherDisplay:10.37,2013-07-03 22:03:00,
2013-07-03 17:08:00,81.7,74.1,29.93,South,180,8.1,15.5,78,0.00,CLR,,0.00,WeatherDisplay:10.37,2013-07-03 22:08:00,
2013-07-03 17:13:00,81.5,74.4,29.94,SE,135,15.0,15.0,79,0.00,,,0.00,WeatherDisplay:10.37,2013-07-03 22:13:00,
2013-07-03 17:18:00,81.5,74.0,29.93,SSE,158,12.7,20.8,78,0.00,CLR,,0.00,WeatherDisplay:10.37,2013-07-03 22:18:00,
2013-07-03 17:23:00,81.5,74.4,29.93,SSE,158,4.6,13.8,79,0.00,CLR,,0.00,WeatherDisplay:10.37,2013-07-03 22:23:00,
2013-07-03 17:28:00,81.5,74.4,29.93,ESE,112,13.8,27.2,79,0.00,CLR,,0.00,WeatherDisplay:10.37,2013-07-03 22:28:00,
2013-07-03 17:33:00,81.1,74.0,29.93,ESE,112,6.9,12.8,79,0.00,CLR,,0.00,WeatherDisplay:10.37,2013-07-03 22:33:00,
2013-07-03 17:38:00,81.0,73.8,29.93,SSE,158,3.5,12.0,79,0.00,CLR,,0.00,WeatherDisplay:10.37,2013-07-03 22:38:00,
2013-07-03 17:43:00,80.8,74.0,29.93,SSE,158,6.9,13.1,80,0.00,CLR,,0.00,WeatherDisplay:10.37,2013-07-03 22:43:00,
2013-07-03 17:48:00,80.8,74.0,29.94,SE,135,11.9,19.1,80,0.00,CLR,,0.00,WeatherDisplay:10.37,2013-07-03 22:48:00,
2013-07-03 17:53:00,80.6,73.9,29.93,South,180,12.7,18.2,80,0.00,CLR,,0.00,WeatherDisplay:10.37,2013-07-03 22:53:00,
2013-07-03 17:58:00,80.4,73.7,29.93,SSE,158,15.0,16.6,80,0.00,,,0.00,WeatherDisplay:10.37,2013-07-03 22:58:00,
2013-07-03 18:04:00,80.4,73.7,29.93,ESE,112,12.7,20.5,80,0.00,CLR,,0.00,WeatherDisplay:10.37,2013-07-03 23:04:00,
2013-07-03 18:10:00,80.2,73.5,29.93,East,90,4.6,11.1,80,0.00,CLR,,0.00,WeatherDisplay:10.37,2013-07-03 23:10:00,
2013-07-03 18:15:00,80.2,73.5,29.94,East,90,6.9,14.0,80,0.00,CLR,,0.00,WeatherDisplay:10.37,2013-07-03 23:15:00,
2013-07-03 18:20:00,79.9,72.8,29.94,ESE,112,4.6,8.8,79,0.00,CLR,,0.00,WeatherDisplay:10.37,2013-07-03 23:20:00,
2013-07-03 18:25:00,79.9,72.8,29.94,SSE,158,11.5,21.9,79,0.00,CLR,,0.00,WeatherDisplay:10.37,2013-07-03 23:25:00,
2013-07-03 18:30:00,79.7,72.6,29.94,East,90,6.9,6.9,79,0.00,CLR,,0.00,WeatherDisplay:10.37,2013-07-03 23:30:00,
2013-07-03 18:36:00,79.7,72.6,29.94,SSE,158,5.8,11.9,79,0.00,CLR,,0.00,WeatherDisplay:10.37,2013-07-03 23:36:00,
2013-07-03 18:41:00,79.7,72.6,29.94,SE,135,9.2,9.2,79,0.00,CLR,,0.00,WeatherDisplay:10.37,2013-07-03 23:41:00,
2013-07-03 18:46:00,79.5,72.4,29.94,SE,135,11.5,14.0,79,0.00,CLR,,0.00,WeatherDisplay:10.37,2013-07-03 23:46:00,
2013-07-03 18:52:00,79.5,72.4,29.94,East,90,12.7,12.7,79,0.00,CLR,,0.00,WeatherDisplay:10.37,2013-07-03 23:52:00,
2013-07-03 18:57:00,79.3,72.3,29.94,SE,135,11.5,20.0,79,0.00,CLR,,0.00,WeatherDisplay:10.37,2013-07-03 23:57:00,
2013-07-03 19:02:00,79.3,72.6,29.94,ENE,68,8.1,8.8,80,0.00,CLR,,0.00,WeatherDisplay:10.37,2013-07-04 00:02:00,
2013-07-03 19:08:00,79.3,72.6,29.94,ESE,112,5.8,11.4,80,0.00,CLR,,0.00,WeatherDisplay:10.37,2013-07-04 00:08:00,
2013-07-03 19:13:00,79.0,72.3,29.94,ESE,112,13.8,13.8,80,0.00,CLR,,0.00,WeatherDisplay:10.37,2013-07-04 00:13:00,
2013-07-03 19:18:00,78.8,72.5,29.94,ESE,112,6.9,8.8,81,0.00,CLR,,0.00,WeatherDisplay:10.37,2013-07-04 00:18:00,
2013-07-03 19:23:00,78.6,72.3,29.95,East,90,4.9,4.9,81,0.00,CLR,,0.00,WeatherDisplay:10.37,2013-07-04 00:23:00,
2013-07-03 19:28:00,78.6,72.3,29.94,East,90,4.0,7.6,81,0.00,CLR,,0.00,WeatherDisplay:10.37,2013-07-04 00:28:00,
2013-07-03 19:33:00,78.6,72.3,29.95,SE,135,3.5,7.0,81,0.00,CLR,,0.00,WeatherDisplay:10.37,2013-07-04 00:33:00,
2013-07-03 19:38:00,78.6,72.3,29.95,SE,135,2.3,3.9,81,0.00,CLR,,0.00,WeatherDisplay:10.37,2013-07-04 00:38:00,
2013-07-03 19:43:00,78.4,72.1,29.95,SSE,158,1.2,1.2,81,0.00,CLR,,0.00,WeatherDisplay:10.37,2013-07-04 00:43:00,
2013-07-03 19:49:00,78.4,72.5,29.95,ESE,112,6.9,11.7,82,0.00,CLR,,0.00,WeatherDisplay:10.37,2013-07-04 00:49:00,
2013-07-03 19:54:00,78.3,72.3,29.95,SE,135,6.9,10.7,82,0.00,CLR,,0.00,WeatherDisplay:10.37,2013-07-04 00:54:00,
2013-07-03 19:59:00,78.1,72.5,29.95,SSE,158,10.4,10.4,83,0.00,CLR,,0.00,WeatherDisplay:10.37,2013-07-04 00:59:00,
2013-07-03 20:04:00,78.1,72.5,29.95,SE,135,4.0,5.0,83,0.00,CLR,,0.00,WeatherDisplay:10.37,2013-07-04 01:04:00,
2013-07-03 20:09:00,77.9,72.3,29.95,SE,135,12.7,13.4,83,0.00,CLR,,0.00,WeatherDisplay:10.37,2013-07-04 01:09:00,
2013-07-03 20:14:00,77.9,72.3,29.95,ESE,112,2.7,5.3,83,0.00,CLR,,0.00,WeatherDisplay:10.37,2013-07-04 01:14:00,
2013-07-03 20:19:00,77.7,72.1,29.95,SSE,158,1.2,4.7,83,0.00,CLR,,0.00,WeatherDisplay:10.37,2013-07-04 01:19:00,
2013-07-03 20:24:00,77.7,72.5,29.95,SE,135,6.9,9.7,84,0.00,CLR,,0.00,WeatherDisplay:10.37,2013-07-04 01:24:00,
2013-07-03 20:29:00,77.7,72.5,29.95,ESE,112,4.0,7.9,84,0.00,CLR,,0.00,WeatherDisplay:10.37,2013-07-04 01:29:00,
2013-07-03 20:34:00,77.5,72.3,29.95,ENE,68,5.8,10.2,84,0.00,CLR,,0.00,WeatherDisplay:10.37,2013-07-04 01:34:00,
2013-07-03 20:39:00,77.5,72.7,29.95,SE,135,4.6,8.4,85,0.00,CLR,,0.00,WeatherDisplay:10.37,2013-07-04 01:39:00,
2013-07-03 20:44:00,77.5,72.7,29.95,East,90,6.9,13.1,85,0.00,CLR,,0.00,WeatherDisplay:10.37,2013-07-04 01:44:00,
2013-07-03 20:49:00,77.2,72.3,29.95,SE,135,3.5,7.8,85,0.00,CLR,,0.00,WeatherDisplay:10.37,2013-07-04 01:49:00,
2013-07-03 20:54:00,77.2,72.3,29.96,East,90,8.1,14.9,85,0.00,CLR,,0.00,WeatherDisplay:10.37,2013-07-04 01:54:00,
2013-07-03 20:59:00,77.2,72.3,29.96,SE,135,8.1,12.7,85,0.00,CLR,,0.00,WeatherDisplay:10.37,2013-07-04 01:59:00,
2013-07-03 21:04:00,77.0,72.5,29.95,East,90,3.5,5.9,86,0.00,CLR,,0.00,WeatherDisplay:10.37,2013-07-04 02:04:00,
2013-07-03 21:09:00,76.8,72.3,29.96,ESE,112,0.0,0.9,86,0.00,CLR,,0.00,WeatherDisplay:10.37,2013-07-04 02:09:00,
2013-07-03 21:15:00,76.5,72.3,29.96,East,90,8.1,8.1,87,0.02,RA,,0.02,WeatherDisplay:10.37,2013-07-04 02:15:00,
2013-07-03 21:20:00,76.1,71.9,29.96,East,90,2.3,4.4,87,0.02,RA,,0.02,WeatherDisplay:10.37,2013-07-04 02:20:00,
2013-07-03 21:25:00,75.9,71.8,29.96,ESE,112,10.4,15.9,87,0.02,,,0.02,WeatherDisplay:10.37,2013-07-04 02:25:00,
2013-07-03 21:30:00,75.6,71.8,29.97,ESE,112,1.3,2.6,88,0.02,CLR,,0.02,WeatherDisplay:10.37,2013-07-04 02:30:00,
2013-07-03 21:35:00,75.4,71.6,29.97,ESE,112,2.3,4.4,88,0.02,CLR,,0.02,WeatherDisplay:10.37,2013-07-04 02:35:00,
2013-07-03 21:40:00,75.4,71.9,29.97,East,90,0.0,0.0,89,0.02,CLR,,0.02,WeatherDisplay:10.37,2013-07-04 02:40:00,
2013-07-03 21:45:00,75.4,71.9,29.97,East,90,1.2,1.2,89,0.02,CLR,,0.02,WeatherDisplay:10.37,2013-07-04 02:45:00,
2013-07-03 21:50:00,75.0,71.6,29.97,East,90,5.8,6.3,89,0.02,CLR,,0.02,WeatherDisplay:10.37,2013-07-04 02:50:00,
2013-07-03 21:56:00,75.0,71.6,29.97,East,90,3.5,7.8,89,0.02,CLR,,0.02,WeatherDisplay:10.37,2013-07-04 02:56:00,
2013-07-03 22:01:00,74.8,71.4,29.97,East,90,3.5,7.0,89,0.02,CLR,,0.02,WeatherDisplay:10.37,2013-07-04 03:01:00,
2013-07-03 22:06:00,74.8,71.4,29.97,East,90,4.0,7.1,89,0.02,CLR,,0.02,WeatherDisplay:10.37,2013-07-04 03:06:00,
2013-07-03 22:11:00,74.8,71.4,29.97,ENE,68,4.0,7.9,89,0.02,CLR,,0.02,WeatherDisplay:10.37,2013-07-04 03:11:00,
2013-07-03 22:16:00,74.7,71.5,29.97,East,90,3.5,6.1,90,0.00,CLR,,0.02,WeatherDisplay:10.37,2013-07-04 03:16:00,
2013-07-03 22:22:00,74.5,71.4,29.97,ENE,68,4.6,6.9,90,0.00,CLR,,0.02,WeatherDisplay:10.37,2013-07-04 03:22:00,
2013-07-03 22:27:00,74.5,71.4,29.97,ENE,68,0.0,0.9,90,0.00,CLR,,0.02,WeatherDisplay:10.37,2013-07-04 03:27:00,
2013-07-03 22:32:00,74.5,71.4,29.97,ENE,68,4.6,7.5,90,0.00,CLR,,0.02,WeatherDisplay:10.37,2013-07-04 03:32:00,
2013-07-03 22:37:00,74.5,71.7,29.97,ENE,68,3.5,6.1,91,0.00,CLR,,0.02,WeatherDisplay:10.37,2013-07-04 03:37:00,
2013-07-03 22:42:00,74.3,71.2,29.97,ENE,68,10.4,20.1,90,0.08,RA,,0.10,WeatherDisplay:10.37,2013-07-04 03:42:00,
2013-07-03 22:47:00,73.9,71.1,29.97,ENE,68,9.2,12.0,91,0.10,RA,,0.12,WeatherDisplay:10.37,2013-07-04 03:47:00,
2013-07-03 22:52:00,73.9,71.1,29.97,East,90,7.1,14.0,91,0.10,RA,,0.12,WeatherDisplay:10.37,2013-07-04 03:52:00,
2013-07-03 22:57:00,73.6,70.8,29.97,East,90,9.7,13.4,91,0.10,,,0.12,WeatherDisplay:10.37,2013-07-04 03:57:00,
2013-07-03 23:01:00,73.6,71.1,29.97,ENE,68,8.1,14.9,92,0.10,CLR,,0.12,WeatherDisplay:10.37,2013-07-04 04:01:00,
2013-07-03 23:02:00,73.6,71.1,29.97,ENE,68,8.1,12.8,92,0.10,CLR,,0.12,WeatherDisplay:10.37,2013-07-04 04:02:00,
2013-07-03 23:06:00,73.6,71.1,29.97,ENE,68,6.2,8.8,92,0.10,CLR,,0.12,WeatherDisplay:10.37,2013-07-04 04:06:00,
2013-07-03 23:09:00,73.4,70.9,29.97,ENE,68,6.9,13.1,92,0.10,CLR,,0.12,WeatherDisplay:10.37,2013-07-04 04:09:00,
2013-07-03 23:14:00,73.4,70.9,29.97,ENE,68,5.3,8.4,92,0.12,RA,,0.14,WeatherDisplay:10.37,2013-07-04 04:14:00,
2013-07-03 23:19:00,73.2,70.4,29.97,ENE,68,3.5,3.5,91,0.12,RA,,0.14,WeatherDisplay:10.37,2013-07-04 04:19:00,
2013-07-03 23:24:00,73.2,70.8,29.98,ENE,68,6.9,13.1,92,0.12,CLR,,0.14,WeatherDisplay:10.37,2013-07-04 04:24:00,
2013-07-03 23:29:00,73.2,70.8,29.97,ESE,112,6.9,13.1,92,0.12,CLR,,0.14,WeatherDisplay:10.37,2013-07-04 04:29:00,
2013-07-03 23:34:00,73.2,70.8,29.98,ENE,68,8.1,15.0,92,0.12,CLR,,0.14,WeatherDisplay:10.37,2013-07-04 04:34:00,
2013-07-03 23:39:00,73.2,70.8,29.98,ENE,68,3.5,7.9,92,0.12,CLR,,0.14,WeatherDisplay:10.37,2013-07-04 04:39:00,
2013-07-03 23:44:00,73.2,70.8,29.98,East,90,6.9,11.3,92,0.04,CLR,,0.14,WeatherDisplay:10.37,2013-07-04 04:44:00,
2013-07-03 23:49:00,73.2,70.8,29.98,SE,135,11.5,13.1,92,0.02,CLR,,0.14,WeatherDisplay:10.37,2013-07-04 04:49:00,
2013-07-03 23:54:00,73.2,70.8,29.98,SE,135,3.5,3.5,92,0.06,RA,,0.18,WeatherDisplay:10.37,2013-07-04 04:54:00,
2013-07-03 23:59:00,73.2,70.8,29.98,SE,135,5.8,11.4,92,0.08,RA,,0.20,WeatherDisplay:10.37,2013-07-04 04:59:00,